Time;durP1;ratioP1;P1;durP2;ratioP2;P2;SDS_P1;SDS_P2;PMS_P1;PMS_P2;Temp;Humidity;BMP_temperature;BMP_pressure;BME280_temperature;BME280_humidity;BME280_pressure;Samples;Min_cycle;Max_cycle;Signal;HPM_P1;HPM_P2
2022/11/11 00:00:21;;;;;;;11.95;5.75;;;11.40;82.20;;;;;;5068957;28;20060;-72
2022/11/11 00:03:07;;;;;;;12.93;5.50;;;11.40;82.30;;;;;;5052479;28;20098;-72
2022/11/11 00:05:52;;;;;;;11.48;5.50;;;11.40;82.30;;;;;;5052154;28;20041;-72
2022/11/11 00:08:38;;;;;;;12.67;5.40;;;11.40;82.30;;;;;;5061409;28;20139;-72
2022/11/11 00:11:24;;;;;;;12.07;5.60;;;11.40;82.50;;;;;;5090895;28;20252;-72
2022/11/11 00:14:11;;;;;;;13.05;5.80;;;11.40;82.60;;;;;;5072465;28;20052;-72
2022/11/11 00:26:08;;;;;;;12.18;6.15;;;11.50;82.70;;;;;;5069814;28;20252;-72
2022/11/11 00:28:54;;;;;;;15.85;6.05;;;11.50;82.80;;;;;;5051514;28;20045;-72
2022/11/11 00:35:51;;;;;;;16.83;6.03;;;11.50;82.80;;;;;;5058124;28;20090;-72
2022/11/11 00:37:48;;;;;;;15.30;6.10;;;11.50;82.80;;;;;;5070819;28;20532;-72
2022/11/11 00:40:33;;;;;;;11.70;5.63;;;11.50;82.80;;;;;;5071140;28;20239;-72
2022/11/11 00:43:19;;;;;;;15.55;5.70;;;11.50;82.70;;;;;;5072071;28;20056;-72
2022/11/11 00:52:13;;;;;;;12.73;5.77;;;11.50;82.70;;;;;;5068886;28;20490;-72
2022/11/11 00:54:59;;;;;;;14.85;6.80;;;11.60;82.70;;;;;;5069883;28;20274;-73
2022/11/11 00:57:44;;;;;;;13.63;6.85;;;11.60;82.60;;;;;;5058758;28;20044;-72
2022/11/11 01:00:30;;;;;;;14.90;6.07;;;11.60;82.60;;;;;;5077022;28;20453;-72
2022/11/11 01:03:16;;;;;;;16.50;6.45;;;11.60;82.60;;;;;;5068256;28;20142;-72
2022/11/11 01:06:04;;;;;;;15.20;6.57;;;11.60;82.50;;;;;;5051951;28;20126;-72
2022/11/11 01:08:50;;;;;;;11.45;6.68;;;11.60;82.60;;;;;;5069412;28;20255;-72
2022/11/11 01:11:35;;;;;;;13.98;6.82;;;11.50;82.70;;;;;;5051261;28;20072;-72
2022/11/11 01:14:21;;;;;;;13.23;6.88;;;11.60;82.60;;;;;;5069719;28;20048;-72
2022/11/11 01:17:08;;;;;;;14.48;6.53;;;11.60;82.50;;;;;;5069510;28;20083;-72
2022/11/11 01:19:53;;;;;;;13.33;5.87;;;11.60;82.50;;;;;;5050799;28;20041;-72
2022/11/11 01:22:40;;;;;;;16.15;7.05;;;11.50;82.50;;;;;;5050953;28;20367;-72
2022/11/11 01:25:26;;;;;;;17.77;7.45;;;11.50;82.60;;;;;;5061360;28;20810;-72
2022/11/11 01:28:12;;;;;;;10.82;7.22;;;11.50;82.60;;;;;;5060335;28;20072;-72
2022/11/11 01:31:01;;;;;;;19.67;7.88;;;11.50;82.60;;;;;;5051070;28;20041;-72
2022/11/11 01:33:47;;;;;;;14.67;7.20;;;11.50;82.60;;;;;;5071925;28;20140;-72
2022/11/11 01:36:33;;;;;;;18.42;8.18;;;11.50;82.70;;;;;;5087722;28;20275;-72
2022/11/11 01:39:20;;;;;;;16.10;8.02;;;11.50;82.70;;;;;;5092564;28;20549;-72
2022/11/11 01:42:05;;;;;;;17.98;8.32;;;11.40;82.80;;;;;;5071805;28;20052;-72
2022/11/11 01:44:51;;;;;;;16.85;9.18;;;11.50;82.70;;;;;;5071886;28;20063;-72
2022/11/11 01:50:36;;;;;;;13.32;7.32;;;11.40;82.80;;;;;;5073013;28;20279;-72
2022/11/11 01:53:22;;;;;;;16.55;8.45;;;11.30;82.80;;;;;;5074909;28;20041;-72
2022/11/11 01:56:11;;;;;;;15.93;8.80;;;11.30;82.90;;;;;;5074306;28;20059;-72
2022/11/11 01:59:01;;;;;;;15.95;8.00;;;11.30;82.90;;;;;;5092481;28;20541;-72
2022/11/11 02:01:48;;;;;;;18.70;9.20;;;11.30;82.80;;;;;;5073046;28;20051;-72
2022/11/11 02:07:42;;;;;;;15.90;9.10;;;11.10;83.00;;;;;;5054044;28;20541;-72
2022/11/11 02:10:30;;;;;;;16.55;9.07;;;11.10;83.10;;;;;;5071897;28;20411;-72
2022/11/11 02:16:32;;;;;;;14.90;6.87;;;11.00;83.30;;;;;;5012764;28;20079;-72
2022/11/11 02:19:22;;;;;;;18.92;10.32;;;11.00;83.40;;;;;;5073646;28;20275;-72
2022/11/11 02:22:13;;;;;;;16.33;9.27;;;11.00;83.60;;;;;;5055341;28;20069;-72
2022/11/11 02:25:04;;;;;;;19.90;9.50;;;10.90;83.60;;;;;;5072189;28;20053;-72
2022/11/11 02:27:52;;;;;;;18.50;10.25;;;10.90;83.70;;;;;;5053820;28;20049;-72
2022/11/11 02:30:37;;;;;;;25.03;12.73;;;10.90;83.90;;;;;;5070985;28;20437;-72
2022/11/11 02:33:23;;;;;;;23.88;12.52;;;10.90;84.10;;;;;;5073648;28;20386;-72
2022/11/11 02:36:14;;;;;;;20.30;12.32;;;10.90;84.20;;;;;;5063769;28;20155;-72
2022/11/11 02:38:59;;;;;;;19.95;10.93;;;10.80;84.30;;;;;;5070801;28;20056;-72
2022/11/11 02:41:58;;;;;;;18.90;10.43;;;10.80;84.40;;;;;;5073871;28;20049;-72
2022/11/11 02:44:44;;;;;;;19.40;11.73;;;10.80;84.60;;;;;;5090901;28;20049;-72
2022/11/11 02:47:29;;;;;;;21.98;12.93;;;10.80;84.70;;;;;;5089624;28;20274;-72
2022/11/11 02:50:15;;;;;;;25.35;12.07;;;10.80;84.80;;;;;;5071495;28;20073;-72
2022/11/11 02:53:01;;;;;;;22.65;12.02;;;10.80;84.90;;;;;;5071926;28;20494;-72
2022/11/11 02:55:47;;;;;;;22.98;12.63;;;10.80;85.00;;;;;;5055848;28;20083;-72
2022/11/11 02:58:34;;;;;;;23.00;12.23;;;10.80;85.00;;;;;;5073295;28;20131;-72
2022/11/11 03:01:22;;;;;;;19.92;12.02;;;10.80;85.00;;;;;;5091474;28;20397;-72
2022/11/11 03:04:08;;;;;;;26.45;14.38;;;10.80;85.00;;;;;;5073415;28;20493;-72
2022/11/11 03:06:54;;;;;;;25.38;13.02;;;10.80;85.20;;;;;;5059513;28;20126;-72
2022/11/11 03:09:39;;;;;;;24.05;12.10;;;10.80;85.20;;;;;;5052908;28;20068;-72
2022/11/11 03:12:25;;;;;;;23.43;12.90;;;10.80;85.20;;;;;;5053267;28;20045;-72
2022/11/11 03:15:12;;;;;;;23.65;12.68;;;10.80;85.20;;;;;;5070161;28;20353;-72
2022/11/11 03:17:57;;;;;;;24.65;13.60;;;10.80;85.10;;;;;;5053068;28;20045;-72
2022/11/11 03:23:48;;;;;;;22.45;12.02;;;10.70;85.20;;;;;;5069522;28;20045;-72
2022/11/11 03:26:33;;;;;;;25.50;14.73;;;10.70;85.30;;;;;;5061670;28;20109;-72
2022/11/11 03:29:19;;;;;;;24.80;12.70;;;10.70;85.30;;;;;;5090956;28;20336;-72
2022/11/11 03:32:07;;;;;;;24.15;13.20;;;10.70;85.30;;;;;;5071052;28;20090;-72
2022/11/11 03:34:52;;;;;;;24.25;13.40;;;10.70;85.30;;;;;;5064249;28;20049;-72
2022/11/11 03:40:42;;;;;;;20.90;11.80;;;10.60;85.40;;;;;;5085859;28;20107;-72
2022/11/11 03:43:29;;;;;;;26.38;13.25;;;10.60;85.50;;;;;;5089097;28;20293;-72
2022/11/11 03:46:15;;;;;;;23.45;13.45;;;10.60;85.70;;;;;;5089239;28;20093;-72
2022/11/11 03:49:03;;;;;;;25.10;13.57;;;10.60;85.70;;;;;;5069034;28;20588;-72
2022/11/11 03:51:49;;;;;;;26.05;15.15;;;10.70;85.80;;;;;;5088986;28;20052;-72
2022/11/11 03:54:34;;;;;;;24.27;12.70;;;10.60;85.90;;;;;;5072050;28;20505;-72
2022/11/11 03:57:32;;;;;;;29.05;13.68;;;10.70;86.00;;;;;;5084608;28;21114;-72
2022/11/11 04:00:20;;;;;;;25.67;13.15;;;10.60;86.00;;;;;;5072075;28;20048;-72
2022/11/11 04:12:19;;;;;;;29.05;13.80;;;10.70;86.20;;;;;;5065034;28;20260;-73
2022/11/11 04:18:09;;;;;;;27.50;15.15;;;10.70;86.30;;;;;;5070397;28;20053;-72
2022/11/11 04:23:59;;;;;;;34.00;16.90;;;10.70;86.40;;;;;;5052866;28;21667;-72
2022/11/11 04:26:44;;;;;;;27.30;14.70;;;10.70;86.50;;;;;;5071378;28;20263;-72
2022/11/11 04:29:30;;;;;;;28.48;14.32;;;10.70;86.30;;;;;;5089488;28;20059;-72
2022/11/11 04:32:37;;;;;;;30.00;16.13;;;10.70;86.40;;;;;;5086707;28;20521;-72
2022/11/11 04:35:23;;;;;;;31.75;15.40;;;10.70;86.40;;;;;;5057916;28;20044;-73
2022/11/11 04:41:14;;;;;;;29.48;15.80;;;10.70;86.40;;;;;;5071274;28;20350;-72
2022/11/11 04:47:03;;;;;;;29.23;15.48;;;10.80;86.60;;;;;;5071997;28;20045;-72
2022/11/11 04:49:49;;;;;;;28.85;15.32;;;10.80;86.60;;;;;;5089386;28;20059;-72
2022/11/11 04:52:35;;;;;;;30.27;17.07;;;10.80;86.60;;;;;;5071240;28;20044;-72
2022/11/11 04:58:27;;;;;;;30.23;17.33;;;10.80;86.60;;;;;;5051494;28;20061;-72
2022/11/11 05:03:14;;;;;;;29.75;15.60;;;10.90;86.70;;;;;;5052373;28;20474;-72
2022/11/11 05:04:17;;;;;;;33.53;16.45;;;10.90;86.60;;;;;;5070515;28;20049;-72
2022/11/11 05:10:08;;;;;;;28.58;14.05;;;10.90;86.50;;;;;;5064388;28;21373;-72
2022/11/11 05:21:19;;;;;;;30.17;15.57;;;10.90;86.40;;;;;;5054569;28;20045;-72
2022/11/11 05:22:12;;;;;;;31.13;15.43;;;11.00;86.60;;;;;;5072738;28;20148;-72
2022/11/11 05:28:02;;;;;;;29.88;14.98;;;11.00;86.40;;;;;;5054774;28;20053;-72
2022/11/11 05:30:47;;;;;;;29.70;16.25;;;11.00;86.40;;;;;;5072463;28;20060;-72
2022/11/11 05:33:35;;;;;;;26.88;14.00;;;11.10;86.30;;;;;;5072797;28;20179;-72
2022/11/11 05:36:21;;;;;;;29.43;14.83;;;11.10;86.20;;;;;;5090426;28;20053;-72
2022/11/11 05:39:06;;;;;;;26.55;14.63;;;11.10;86.20;;;;;;5074594;28;20259;-72
2022/11/11 05:41:52;;;;;;;28.92;16.90;;;11.10;86.10;;;;;;5073817;28;20368;-72
2022/11/11 05:44:38;;;;;;;28.30;14.93;;;11.10;86.10;;;;;;5072519;28;20049;-72
2022/11/11 05:47:24;;;;;;;31.23;16.75;;;11.10;86.10;;;;;;5071969;28;20076;-72
2022/11/11 05:50:11;;;;;;;28.87;13.87;;;11.10;85.90;;;;;;5071905;28;20049;-72
2022/11/11 05:52:56;;;;;;;30.27;15.02;;;11.00;85.80;;;;;;5058565;28;20379;-72
2022/11/11 05:55:42;;;;;;;25.52;14.52;;;11.00;86.00;;;;;;5073262;28;20096;-72
2022/11/11 05:58:28;;;;;;;27.23;14.68;;;11.10;85.90;;;;;;5073157;28;20056;-72
2022/11/11 06:01:13;;;;;;;28.20;15.18;;;11.00;85.80;;;;;;5083067;28;20045;-72
2022/11/11 06:03:59;;;;;;;27.83;15.37;;;11.00;86.00;;;;;;5072606;28;20083;-72
2022/11/11 06:06:46;;;;;;;28.58;15.77;;;11.00;86.10;;;;;;5072295;28;20256;-72
2022/11/11 06:09:32;;;;;;;26.70;14.10;;;11.10;86.00;;;;;;5053612;28;21095;-72
2022/11/11 06:12:17;;;;;;;28.80;14.63;;;11.00;85.90;;;;;;5073949;28;20048;-72
2022/11/11 06:15:03;;;;;;;28.50;15.00;;;11.00;86.00;;;;;;5053822;28;20056;-72
2022/11/11 06:17:49;;;;;;;28.10;14.90;;;11.00;86.10;;;;;;5071361;28;20057;-72
2022/11/11 06:20:35;;;;;;;29.20;14.25;;;11.00;86.10;;;;;;5070644;28;20334;-72
2022/11/11 06:23:22;;;;;;;28.75;13.95;;;11.00;86.10;;;;;;5065131;28;20049;-72
2022/11/11 06:26:13;;;;;;;27.38;12.75;;;11.00;86.10;;;;;;5071774;28;20056;-72
2022/11/11 06:28:59;;;;;;;29.95;15.50;;;11.00;86.00;;;;;;5070340;28;20053;-72
2022/11/11 06:31:45;;;;;;;25.20;13.50;;;11.00;86.10;;;;;;5071927;28;20094;-72
2022/11/11 06:34:31;;;;;;;27.92;13.93;;;11.00;86.10;;;;;;5053556;28;20279;-72
2022/11/11 06:37:16;;;;;;;26.67;14.73;;;11.00;86.00;;;;;;5063464;28;20868;-72
2022/11/11 06:40:04;;;;;;;24.40;13.15;;;11.00;86.00;;;;;;5053052;28;20049;-72
2022/11/11 06:42:49;;;;;;;25.63;14.70;;;11.00;86.10;;;;;;5052897;28;20501;-72
2022/11/11 06:45:36;;;;;;;25.83;12.10;;;11.00;86.10;;;;;;5052023;28;20049;-72
2022/11/11 06:48:22;;;;;;;27.02;13.57;;;11.10;86.10;;;;;;5053276;28;21205;-72
2022/11/11 06:51:09;;;;;;;28.17;14.07;;;11.00;86.00;;;;;;5071028;28;20122;-72
2022/11/11 06:53:55;;;;;;;25.52;13.55;;;11.00;86.10;;;;;;5071472;28;20041;-72
2022/11/11 06:56:42;;;;;;;27.52;13.05;;;11.10;86.00;;;;;;5089317;28;20048;-72
2022/11/11 06:59:28;;;;;;;23.97;13.53;;;11.00;86.00;;;;;;5072853;28;20111;-72
2022/11/11 07:02:14;;;;;;;26.35;13.98;;;11.10;86.00;;;;;;5073268;28;20248;-72
2022/11/11 07:05:00;;;;;;;24.55;12.35;;;11.00;86.00;;;;;;5071794;28;20508;-72
2022/11/11 07:07:46;;;;;;;25.77;13.90;;;11.00;86.10;;;;;;5072647;28;20050;-72
2022/11/11 07:10:33;;;;;;;26.75;13.48;;;11.00;86.10;;;;;;5091111;28;20109;-72
2022/11/11 07:13:20;;;;;;;25.20;13.07;;;11.00;86.10;;;;;;5067347;28;20049;-72
2022/11/11 07:16:07;;;;;;;26.55;13.05;;;11.10;86.10;;;;;;5071005;28;20724;-72
2022/11/11 07:18:53;;;;;;;26.00;13.20;;;11.10;86.10;;;;;;5070710;28;20053;-72
2022/11/11 07:21:39;;;;;;;26.83;13.10;;;11.10;86.00;;;;;;5062933;28;20060;-72
2022/11/11 07:24:24;;;;;;;26.33;13.23;;;11.10;86.00;;;;;;5072663;28;20055;-72
2022/11/11 07:27:10;;;;;;;19.57;10.83;;;11.10;85.90;;;;;;5090528;28;20060;-72
2022/11/11 07:29:57;;;;;;;24.75;13.30;;;11.00;86.00;;;;;;5085947;28;20745;-72
2022/11/11 07:32:47;;;;;;;26.20;13.50;;;11.10;86.10;;;;;;5072521;28;21315;-72
2022/11/11 07:35:33;;;;;;;25.27;12.73;;;11.10;86.10;;;;;;5066375;28;20076;-72
2022/11/11 07:38:18;;;;;;;24.98;11.95;;;11.10;86.10;;;;;;5065081;28;20048;-72
2022/11/11 07:41:04;;;;;;;24.93;13.00;;;11.10;86.00;;;;;;5064594;28;20603;-72
2022/11/11 07:43:50;;;;;;;24.40;12.75;;;11.10;86.10;;;;;;5066478;28;20846;-72
2022/11/11 07:46:37;;;;;;;24.35;12.18;;;11.10;86.00;;;;;;5082488;28;20052;-72
2022/11/11 07:49:22;;;;;;;24.90;10.93;;;11.10;86.10;;;;;;5075548;28;20049;-72
2022/11/11 07:52:08;;;;;;;24.05;12.93;;;11.10;86.00;;;;;;5062077;28;20498;-72
2022/11/11 07:54:54;;;;;;;24.73;13.60;;;11.10;85.90;;;;;;5085067;28;20095;-72
2022/11/11 07:57:40;;;;;;;24.02;12.45;;;11.10;85.90;;;;;;5066119;28;20360;-72
2022/11/11 08:00:26;;;;;;;28.95;13.45;;;11.10;85.80;;;;;;5084216;28;20041;-72
2022/11/11 08:03:13;;;;;;;22.00;11.88;;;11.10;85.80;;;;;;5083399;28;20051;-72
2022/11/11 08:06:01;;;;;;;24.20;12.88;;;11.10;85.80;;;;;;5065754;28;20061;-72
2022/11/11 08:09:06;;;;;;;24.10;12.67;;;11.10;85.90;;;;;;5080765;28;20044;-72
2022/11/11 08:14:55;;;;;;;20.85;10.88;;;11.10;85.90;;;;;;5079133;28;20067;-72
2022/11/11 08:17:41;;;;;;;22.13;11.27;;;11.10;86.00;;;;;;5080675;28;20604;-73
2022/11/11 08:20:28;;;;;;;19.70;10.93;;;11.10;86.00;;;;;;5080261;28;21064;-72
2022/11/11 08:23:20;;;;;;;25.20;12.33;;;11.10;86.10;;;;;;5093617;28;20037;-72
2022/11/11 08:26:07;;;;;;;22.02;11.20;;;11.10;86.10;;;;;;5066859;28;20351;-72
2022/11/11 08:28:52;;;;;;;20.98;11.32;;;11.10;86.10;;;;;;5065893;28;20048;-72
2022/11/11 08:31:39;;;;;;;20.48;11.73;;;11.10;86.20;;;;;;5067750;28;20103;-72
2022/11/11 08:34:24;;;;;;;21.70;11.93;;;11.10;86.20;;;;;;5066374;28;20052;-72
2022/11/11 08:37:11;;;;;;;21.67;10.90;;;11.10;86.10;;;;;;5078384;28;20053;-72
2022/11/11 08:39:57;;;;;;;21.77;11.75;;;11.10;86.00;;;;;;5069885;28;20250;-72
2022/11/11 08:42:43;;;;;;;19.33;9.93;;;11.10;85.90;;;;;;5073773;28;20220;-72
2022/11/11 08:45:28;;;;;;;21.70;10.43;;;11.10;85.90;;;;;;5073190;28;20824;-72
2022/11/11 08:48:14;;;;;;;21.20;10.18;;;11.10;85.90;;;;;;5063198;28;20096;-72
2022/11/11 08:51:00;;;;;;;19.93;9.17;;;11.10;85.90;;;;;;5066285;28;20115;-72
2022/11/11 08:53:47;;;;;;;22.95;11.02;;;11.10;85.90;;;;;;5065673;28;20302;-72
2022/11/11 08:56:33;;;;;;;20.92;10.98;;;11.20;85.90;;;;;;5083983;28;20056;-72
2022/11/11 08:59:19;;;;;;;23.13;11.18;;;11.20;85.80;;;;;;5066875;28;20045;-73
2022/11/11 09:02:04;;;;;;;18.40;9.38;;;11.20;85.80;;;;;;5087975;28;20048;-72
2022/11/11 09:04:50;;;;;;;23.10;11.23;;;11.20;85.70;;;;;;5092136;28;20060;-72
2022/11/11 09:07:36;;;;;;;21.02;10.18;;;11.30;85.60;;;;;;5066486;28;20760;-72
2022/11/11 09:10:23;;;;;;;21.48;10.75;;;11.20;85.50;;;;;;5082542;28;20056;-72
2022/11/11 09:13:08;;;;;;;21.10;11.20;;;11.30;85.50;;;;;;5083863;28;20060;-72
2022/11/11 09:15:54;;;;;;;19.67;10.07;;;11.30;85.50;;;;;;5071759;28;20041;-72
2022/11/11 09:18:40;;;;;;;21.27;9.83;;;11.30;85.50;;;;;;5093215;28;20071;-72
2022/11/11 09:21:26;;;;;;;21.17;9.95;;;11.30;85.50;;;;;;5071611;28;20754;-72
2022/11/11 09:24:12;;;;;;;19.50;10.43;;;11.30;85.40;;;;;;5070325;28;20040;-72
2022/11/11 09:26:59;;;;;;;20.13;9.15;;;11.40;85.10;;;;;;5072006;28;20048;-72
2022/11/11 09:29:45;;;;;;;19.67;11.07;;;11.40;85.10;;;;;;5070094;28;20044;-72
2022/11/11 09:32:30;;;;;;;18.63;9.17;;;11.30;85.20;;;;;;5084756;28;20056;-72
2022/11/11 09:35:16;;;;;;;19.75;9.50;;;11.30;85.20;;;;;;5067396;28;20393;-72
2022/11/11 09:38:27;;;;;;;21.35;10.18;;;11.30;85.30;;;;;;5070818;28;20045;-72
2022/11/11 09:41:25;;;;;;;20.25;9.95;;;11.30;85.30;;;;;;5081680;28;20052;-72
2022/11/11 09:44:30;;;;;;;21.00;9.70;;;11.40;85.20;;;;;;5084757;28;20059;-72
2022/11/11 09:47:21;;;;;;;16.60;9.03;;;11.40;85.10;;;;;;5074325;28;20502;-73
2022/11/11 09:50:11;;;;;;;19.70;9.80;;;11.40;85.30;;;;;;5060253;28;20255;-72
2022/11/11 09:53:01;;;;;;;20.40;10.25;;;11.40;85.20;;;;;;5053448;28;20041;-72
2022/11/11 09:55:52;;;;;;;20.90;9.45;;;11.40;85.20;;;;;;5056489;28;20080;-73
2022/11/11 09:58:41;;;;;;;16.48;9.75;;;11.40;85.30;;;;;;5062992;28;20056;-73
2022/11/11 10:01:32;;;;;;;19.40;9.53;;;11.40;85.20;;;;;;5081909;28;20052;-73
2022/11/11 10:04:27;;;;;;;19.15;8.68;;;11.40;85.10;;;;;;5062919;28;20327;-72
2022/11/11 10:07:20;;;;;;;20.05;9.68;;;11.40;85.10;;;;;;5072869;28;20060;-72
2022/11/11 10:10:17;;;;;;;19.08;10.38;;;11.50;85.20;;;;;;5072184;28;20482;-73
2022/11/11 10:13:03;;;;;;;16.50;8.57;;;11.50;85.00;;;;;;5072113;28;20057;-73
2022/11/11 10:15:58;;;;;;;16.23;9.50;;;11.50;84.80;;;;;;5069191;28;20045;-73
2022/11/11 10:19:02;;;;;;;20.13;9.90;;;11.50;84.90;;;;;;5079260;28;20357;-73
2022/11/11 10:21:51;;;;;;;17.23;8.35;;;11.50;84.90;;;;;;5091344;28;20087;-72
2022/11/11 10:24:41;;;;;;;17.45;9.30;;;11.50;84.80;;;;;;5068673;28;20127;-72
2022/11/11 10:27:27;;;;;;;20.15;10.07;;;11.50;85.20;;;;;;5079993;28;20132;-72
2022/11/11 10:30:19;;;;;;;15.47;6.93;;;11.60;85.00;;;;;;5056509;28;20219;-72
2022/11/11 10:33:13;;;;;;;15.98;8.15;;;11.60;84.90;;;;;;5088080;28;20337;-73
2022/11/11 10:36:03;;;;;;;19.08;10.18;;;11.70;84.80;;;;;;5087988;28;20040;-72
2022/11/11 10:38:56;;;;;;;18.10;9.60;;;11.70;84.60;;;;;;5081298;28;20045;-72
2022/11/11 10:41:46;;;;;;;19.75;10.30;;;11.70;84.60;;;;;;5063237;28;20052;-72
2022/11/11 10:44:34;;;;;;;16.63;9.27;;;11.70;84.50;;;;;;5066796;28;20045;-72
2022/11/11 10:47:42;;;;;;;15.60;8.77;;;11.70;84.40;;;;;;5082441;28;20724;-73
2022/11/11 10:50:33;;;;;;;17.63;9.23;;;11.70;84.50;;;;;;5081815;28;20044;-73
2022/11/11 10:53:34;;;;;;;16.33;9.02;;;11.70;84.50;;;;;;5086456;28;20063;-73
2022/11/11 10:56:25;;;;;;;18.00;9.07;;;11.70;84.40;;;;;;5067185;28;20045;-72
2022/11/11 10:59:17;;;;;;;16.97;9.40;;;11.70;84.20;;;;;;5072657;28;20126;-73
2022/11/11 11:02:12;;;;;;;16.35;8.95;;;11.70;84.20;;;;;;5079561;28;20712;-72
2022/11/11 11:05:03;;;;;;;20.05;9.05;;;11.70;84.10;;;;;;5079886;28;20056;-72
2022/11/11 11:07:53;;;;;;;19.60;9.10;;;11.80;84.10;;;;;;5065095;28;20577;-72
2022/11/11 11:10:44;;;;;;;15.73;8.70;;;11.70;84.20;;;;;;5079955;28;20185;-72
2022/11/11 11:13:35;;;;;;;16.13;7.50;;;11.80;84.20;;;;;;5082585;28;20053;-72
2022/11/11 11:16:24;;;;;;;15.68;8.82;;;11.80;84.20;;;;;;5080294;28;20283;-72
2022/11/11 11:19:21;;;;;;;17.13;8.40;;;11.80;84.20;;;;;;5069140;28;20052;-72
2022/11/11 11:22:07;;;;;;;15.75;8.88;;;11.80;84.40;;;;;;5069558;28;20518;-72
2022/11/11 11:25:10;;;;;;;16.63;8.73;;;11.80;84.40;;;;;;5077391;28;20241;-72
2022/11/11 11:28:07;;;;;;;17.13;8.43;;;11.90;84.20;;;;;;5078102;28;20050;-72
2022/11/11 11:30:59;;;;;;;17.05;7.57;;;11.90;84.20;;;;;;5063495;28;20264;-73
2022/11/11 11:33:55;;;;;;;16.92;9.23;;;11.90;84.10;;;;;;5071530;28;20036;-73
2022/11/11 11:36:42;;;;;;;18.08;8.55;;;11.90;84.10;;;;;;5070850;28;20462;-73
2022/11/11 11:39:35;;;;;;;15.48;7.75;;;11.90;83.70;;;;;;5070867;28;20049;-73
2022/11/11 11:42:29;;;;;;;16.00;8.63;;;11.80;83.90;;;;;;5072116;28;20045;-73
2022/11/11 11:45:23;;;;;;;14.98;8.73;;;11.80;84.00;;;;;;5081785;28;20258;-73
2022/11/11 11:48:43;;;;;;;16.08;7.78;;;11.90;84.00;;;;;;5067899;28;20049;-72
2022/11/11 11:51:35;;;;;;;17.38;8.45;;;11.80;84.10;;;;;;5068335;28;20182;-73
2022/11/11 11:54:46;;;;;;;14.75;7.63;;;11.80;84.10;;;;;;5068618;28;20045;-72
2022/11/11 11:57:44;;;;;;;17.77;8.93;;;11.80;84.10;;;;;;5063040;28;20080;-72
2022/11/11 12:00:37;;;;;;;15.93;8.70;;;11.90;84.00;;;;;;5058968;28;20256;-72
2022/11/11 12:03:44;;;;;;;17.17;9.48;;;11.80;84.00;;;;;;5076555;28;20037;-72
2022/11/11 12:06:43;;;;;;;18.88;8.80;;;11.90;83.90;;;;;;5081311;28;20052;-72
2022/11/11 12:09:40;;;;;;;17.27;8.45;;;11.90;83.70;;;;;;5068658;28;20187;-72
2022/11/11 12:12:35;;;;;;;14.03;6.87;;;11.90;83.70;;;;;;5069362;28;20559;-72
2022/11/11 12:15:34;;;;;;;17.80;9.07;;;11.90;83.70;;;;;;5050714;28;20283;-72
2022/11/11 12:18:40;;;;;;;15.38;8.85;;;11.90;83.50;;;;;;5050249;28;20053;-72
2022/11/11 12:21:33;;;;;;;16.63;8.98;;;11.90;83.50;;;;;;5071786;28;20056;-73
2022/11/11 12:24:33;;;;;;;16.20;9.07;;;11.90;83.70;;;;;;5079173;28;20049;-72
2022/11/11 12:27:27;;;;;;;15.90;8.53;;;11.90;83.50;;;;;;5063402;28;20772;-72
2022/11/11 12:30:18;;;;;;;13.23;5.25;;;11.90;83.70;;;;;;5061386;28;20267;-72
2022/11/11 12:33:32;;;;;;;17.20;9.85;;;11.90;83.60;;;;;;5061938;28;20052;-73
2022/11/11 12:36:28;;;;;;;16.17;8.75;;;11.90;83.70;;;;;;5078801;28;20056;-73
2022/11/11 12:39:43;;;;;;;14.65;8.80;;;11.90;83.50;;;;;;5065411;28;20059;-73
2022/11/11 12:42:42;;;;;;;14.23;7.40;;;12.00;83.60;;;;;;5064868;28;20045;-73
2022/11/11 12:45:36;;;;;;;16.30;8.10;;;12.00;83.60;;;;;;5066798;28;20290;-72
2022/11/11 12:48:49;;;;;;;15.18;7.97;;;12.00;83.60;;;;;;5077308;28;20771;-73
2022/11/11 12:51:54;;;;;;;15.30;7.18;;;12.00;83.30;;;;;;5078724;28;20052;-72
2022/11/11 12:54:54;;;;;;;14.98;7.55;;;12.10;83.40;;;;;;5078463;28;20064;-72
2022/11/11 12:57:59;;;;;;;15.27;7.00;;;12.10;83.30;;;;;;5066596;28;20048;-72
2022/11/11 13:01:10;;;;;;;12.65;7.00;;;12.10;83.40;;;;;;5078650;28;20408;-72
2022/11/11 13:04:19;;;;;;;12.75;7.00;;;12.10;83.30;;;;;;5063214;28;20490;-72
2022/11/11 13:07:46;;;;;;;14.07;6.57;;;12.10;83.20;;;;;;5079063;28;20122;-72
2022/11/11 13:10:42;;;;;;;14.90;8.05;;;12.10;82.70;;;;;;5032914;28;20494;-72
2022/11/11 13:13:40;;;;;;;12.67;7.33;;;12.10;82.60;;;;;;5082791;28;20052;-72
2022/11/11 13:16:27;;;;;;;11.98;6.25;;;12.10;82.70;;;;;;5058872;28;20279;-72
2022/11/11 13:19:23;;;;;;;15.10;7.20;;;12.10;82.90;;;;;;5057018;28;20048;-72
2022/11/11 13:22:18;;;;;;;12.73;6.15;;;12.10;83.00;;;;;;5060538;28;20044;-72
2022/11/11 13:25:06;;;;;;;12.35;6.43;;;12.10;83.00;;;;;;5079195;28;20515;-72
2022/11/11 13:27:56;;;;;;;13.47;5.80;;;12.10;83.20;;;;;;5082686;28;20178;-72
2022/11/11 13:30:51;;;;;;;16.15;8.32;;;12.10;83.30;;;;;;5081985;28;20279;-72
2022/11/11 13:33:41;;;;;;;14.93;8.27;;;12.10;83.40;;;;;;5081909;28;20506;-72
2022/11/11 13:36:31;;;;;;;15.70;8.15;;;12.20;83.40;;;;;;5065979;28;20052;-72
2022/11/11 13:39:30;;;;;;;14.48;7.60;;;12.20;83.50;;;;;;5065587;28;20053;-72
2022/11/11 13:42:22;;;;;;;14.73;8.10;;;12.20;83.60;;;;;;5065421;28;20134;-72
2022/11/11 13:45:19;;;;;;;15.60;8.23;;;12.30;83.60;;;;;;5065517;28;20252;-72
2022/11/11 13:48:06;;;;;;;13.35;7.15;;;12.30;83.40;;;;;;5065146;28;20045;-72
2022/11/11 13:50:52;;;;;;;15.20;8.50;;;12.40;83.30;;;;;;5062605;28;20638;-72
2022/11/11 13:53:41;;;;;;;13.85;7.35;;;12.50;82.80;;;;;;5057546;28;20502;-72
2022/11/11 13:56:33;;;;;;;12.97;7.00;;;12.50;82.50;;;;;;5083808;28;20052;-72
2022/11/11 13:59:23;;;;;;;15.30;7.53;;;12.50;82.50;;;;;;5073908;28;20260;-73
2022/11/11 14:02:26;;;;;;;12.18;6.93;;;12.60;82.10;;;;;;5084025;28;20109;-72
2022/11/11 14:05:17;;;;;;;16.60;7.78;;;12.70;82.10;;;;;;5070712;28;20044;-73
2022/11/11 14:08:03;;;;;;;13.73;7.20;;;12.70;81.90;;;;;;5069431;28;20059;-73
2022/11/11 14:10:56;;;;;;;13.90;6.80;;;12.80;81.50;;;;;;5081031;28;20060;-73
2022/11/11 14:13:42;;;;;;;12.70;7.57;;;12.80;81.20;;;;;;5081640;28;20288;-73
2022/11/11 14:16:59;;;;;;;11.98;6.82;;;12.80;80.90;;;;;;5070251;28;20053;-72
2022/11/11 14:19:44;;;;;;;13.98;7.80;;;12.90;80.60;;;;;;5069106;28;20198;-73
2022/11/11 14:22:32;;;;;;;13.60;6.97;;;12.90;80.40;;;;;;5081576;28;20056;-73
2022/11/11 14:25:26;;;;;;;13.50;7.27;;;12.90;80.40;;;;;;5069966;28;20134;-73
2022/11/11 14:28:23;;;;;;;12.70;6.32;;;13.00;80.50;;;;;;5069415;28;20747;-73
2022/11/11 14:31:39;;;;;;;12.35;6.85;;;13.00;80.40;;;;;;5069816;28;20052;-73
2022/11/11 14:34:39;;;;;;;13.20;6.68;;;13.00;80.20;;;;;;5070197;28;20045;-73
2022/11/11 14:37:43;;;;;;;13.50;7.18;;;13.00;80.20;;;;;;5068646;28;20219;-72
2022/11/11 14:40:30;;;;;;;14.30;7.13;;;13.00;80.10;;;;;;5071182;28;20080;-72
2022/11/11 14:43:37;;;;;;;12.57;6.57;;;13.00;79.90;;;;;;5078131;28;20267;-72
2022/11/11 14:46:23;;;;;;;13.20;6.82;;;13.00;80.00;;;;;;5060025;28;20044;-72
2022/11/11 14:49:08;;;;;;;12.25;6.22;;;13.00;80.10;;;;;;5062420;28;20968;-72
2022/11/11 14:51:58;;;;;;;13.38;6.35;;;13.00;80.20;;;;;;5082519;28;20083;-73
2022/11/11 14:55:12;;;;;;;12.23;6.87;;;13.10;79.80;;;;;;5062567;28;20560;-73
2022/11/11 14:58:05;;;;;;;12.00;6.32;;;13.10;79.60;;;;;;5064178;28;20313;-73
2022/11/11 15:00:58;;;;;;;13.32;6.07;;;13.00;79.60;;;;;;5075551;28;20079;-73
2022/11/11 15:03:48;;;;;;;11.90;5.20;;;13.00;79.80;;;;;;5070790;28;21059;-74
2022/11/11 15:06:39;;;;;;;12.35;6.07;;;13.00;80.20;;;;;;5072584;28;20502;-73
2022/11/11 15:09:52;;;;;;;9.80;5.20;;;13.00;80.10;;;;;;5072336;28;20044;-73
2022/11/11 15:13:11;;;;;;;11.30;6.43;;;13.00;80.10;;;;;;5072005;28;20299;-74
2022/11/11 15:16:07;;;;;;;10.75;5.88;;;13.00;80.20;;;;;;5060109;28;20111;-74
2022/11/11 15:19:27;;;;;;;11.80;5.85;;;13.10;80.20;;;;;;5060151;28;20936;-73
2022/11/11 15:22:27;;;;;;;12.93;6.43;;;13.10;80.10;;;;;;5068361;28;20051;-74
2022/11/11 15:25:35;;;;;;;12.67;6.10;;;13.10;80.00;;;;;;5086729;28;20059;-74
2022/11/11 15:28:39;;;;;;;11.70;5.80;;;13.10;79.90;;;;;;5066645;28;20259;-74
2022/11/11 15:31:35;;;;;;;12.73;5.95;;;13.10;79.80;;;;;;5082552;28;20162;-74
2022/11/11 15:34:32;;;;;;;12.35;6.10;;;13.10;79.70;;;;;;5065567;28;20052;-73
2022/11/11 15:37:22;;;;;;;11.93;5.90;;;13.00;79.70;;;;;;5065866;28;20041;-73
2022/11/11 15:40:18;;;;;;;11.40;6.03;;;13.00;79.50;;;;;;5080987;28;20074;-73
2022/11/11 15:43:04;;;;;;;13.18;6.35;;;13.00;79.50;;;;;;5068677;28;20256;-74
2022/11/11 15:45:53;;;;;;;12.95;5.85;;;13.00;79.40;;;;;;5067538;28;20100;-73